sensor_id;sensor_type;location;lat;lon;timestamp;P1;durP1;ratioP1;P2;durP2;ratioP2
24567;SDS011;12731;52.182;8.716;2023-04-07T00:00:27;12.77;;;9.63;;
24567;SDS011;12731;52.182;8.716;2023-04-07T00:02:54;11.10;;;9.75;;
24567;SDS011;12731;52.182;8.716;2023-04-07T00:05:21;14.05;;;10.98;;
24567;SDS011;12731;52.182;8.716;2023-04-07T00:07:47;14.15;;;10.05;;
24567;SDS011;12731;52.182;8.716;2023-04-07T00:10:23;12.85;;;10.25;;
24567;SDS011;12731;52.182;8.716;2023-04-07T00:12:50;13.35;;;10.35;;
24567;SDS011;12731;52.182;8.716;2023-04-07T00:15:16;12.10;;;9.88;;
24567;SDS011;12731;52.182;8.716;2023-04-07T00:17:43;12.25;;;10.50;;
24567;SDS011;12731;52.182;8.716;2023-04-07T00:20:10;14.35;;;9.95;;
24567;SDS011;12731;52.182;8.716;2023-04-07T00:22:37;12.10;;;10.00;;
24567;SDS011;12731;52.182;8.716;2023-04-07T00:25:03;11.77;;;9.38;;
24567;SDS011;12731;52.182;8.716;2023-04-07T00:27:30;11.27;;;9.25;;
24567;SDS011;12731;52.182;8.716;2023-04-07T00:29:57;10.85;;;9.65;;
24567;SDS011;12731;52.182;8.716;2023-04-07T00:32:24;12.13;;;9.50;;
24567;SDS011;12731;52.182;8.716;2023-04-07T00:34:50;11.63;;;9.48;;
24567;SDS011;12731;52.182;8.716;2023-04-07T00:37:17;10.43;;;9.05;;
24567;SDS011;12731;52.182;8.716;2023-04-07T00:39:44;11.23;;;9.38;;
24567;SDS011;12731;52.182;8.716;2023-04-07T00:42:12;11.48;;;9.27;;
24567;SDS011;12731;52.182;8.716;2023-04-07T00:44:38;11.38;;;9.18;;
24567;SDS011;12731;52.182;8.716;2023-04-07T00:47:05;11.30;;;9.80;;
24567;SDS011;12731;52.182;8.716;2023-04-07T00:49:31;12.45;;;10.00;;
24567;SDS011;12731;52.182;8.716;2023-04-07T00:51:58;13.10;;;10.00;;
24567;SDS011;12731;52.182;8.716;2023-04-07T00:54:24;12.05;;;10.13;;
24567;SDS011;12731;52.182;8.716;2023-04-07T00:56:51;12.98;;;10.25;;
24567;SDS011;12731;52.182;8.716;2023-04-07T00:59:18;11.10;;;9.18;;
24567;SDS011;12731;52.182;8.716;2023-04-07T01:02:01;10.68;;;9.15;;
24567;SDS011;12731;52.182;8.716;2023-04-07T01:04:50;10.45;;;9.20;;
24567;SDS011;12731;52.182;8.716;2023-04-07T01:07:29;11.13;;;9.15;;
24567;SDS011;12731;52.182;8.716;2023-04-07T01:10:04;10.38;;;9.25;;
24567;SDS011;12731;52.182;8.716;2023-04-07T01:12:39;12.63;;;8.70;;
24567;SDS011;12731;52.182;8.716;2023-04-07T01:15:11;12.43;;;10.38;;
24567;SDS011;12731;52.182;8.716;2023-04-07T01:17:52;13.55;;;10.02;;
24567;SDS011;12731;52.182;8.716;2023-04-07T01:20:21;11.13;;;9.88;;
24567;SDS011;12731;52.182;8.716;2023-04-07T01:22:50;13.30;;;10.05;;
24567;SDS011;12731;52.182;8.716;2023-04-07T01:25:34;11.82;;;9.68;;
24567;SDS011;12731;52.182;8.716;2023-04-07T01:31:09;12.73;;;10.45;;
24567;SDS011;12731;52.182;8.716;2023-04-07T01:33:37;12.57;;;10.30;;
24567;SDS011;12731;52.182;8.716;2023-04-07T01:36:05;12.85;;;10.27;;
24567;SDS011;12731;52.182;8.716;2023-04-07T01:38:32;11.98;;;9.93;;
24567;SDS011;12731;52.182;8.716;2023-04-07T01:40:58;11.60;;;9.63;;
24567;SDS011;12731;52.182;8.716;2023-04-07T01:43:26;13.23;;;9.82;;
24567;SDS011;12731;52.182;8.716;2023-04-07T01:45:53;14.43;;;10.10;;
24567;SDS011;12731;52.182;8.716;2023-04-07T01:48:22;12.73;;;9.68;;
24567;SDS011;12731;52.182;8.716;2023-04-07T01:50:48;11.82;;;9.32;;
24567;SDS011;12731;52.182;8.716;2023-04-07T01:53:15;12.95;;;9.32;;
24567;SDS011;12731;52.182;8.716;2023-04-07T01:55:42;10.65;;;9.25;;
24567;SDS011;12731;52.182;8.716;2023-04-07T01:58:09;11.57;;;9.43;;
24567;SDS011;12731;52.182;8.716;2023-04-07T02:00:35;11.40;;;9.90;;
24567;SDS011;12731;52.182;8.716;2023-04-07T02:03:26;11.77;;;9.95;;
24567;SDS011;12731;52.182;8.716;2023-04-07T02:05:51;11.18;;;9.50;;
24567;SDS011;12731;52.182;8.716;2023-04-07T02:08:21;12.55;;;10.30;;
24567;SDS011;12731;52.182;8.716;2023-04-07T02:10:48;12.95;;;10.60;;
24567;SDS011;12731;52.182;8.716;2023-04-07T02:13:17;12.20;;;10.00;;
24567;SDS011;12731;52.182;8.716;2023-04-07T02:15:44;14.18;;;10.40;;
24567;SDS011;12731;52.182;8.716;2023-04-07T02:18:12;13.27;;;9.75;;
24567;SDS011;12731;52.182;8.716;2023-04-07T02:20:39;12.43;;;10.68;;
24567;SDS011;12731;52.182;8.716;2023-04-07T02:23:09;11.68;;;9.90;;
24567;SDS011;12731;52.182;8.716;2023-04-07T02:25:36;12.50;;;10.45;;
24567;SDS011;12731;52.182;8.716;2023-04-07T02:28:05;10.70;;;9.48;;
24567;SDS011;12731;52.182;8.716;2023-04-07T02:30:32;13.98;;;10.73;;
24567;SDS011;12731;52.182;8.716;2023-04-07T02:32:59;14.07;;;10.70;;
24567;SDS011;12731;52.182;8.716;2023-04-07T02:35:25;12.70;;;10.15;;
24567;SDS011;12731;52.182;8.716;2023-04-07T02:37:52;14.75;;;10.98;;
24567;SDS011;12731;52.182;8.716;2023-04-07T02:40:18;14.60;;;11.30;;
24567;SDS011;12731;52.182;8.716;2023-04-07T02:42:45;15.98;;;11.13;;
24567;SDS011;12731;52.182;8.716;2023-04-07T02:45:12;14.48;;;10.93;;
24567;SDS011;12731;52.182;8.716;2023-04-07T02:47:38;13.05;;;11.57;;
24567;SDS011;12731;52.182;8.716;2023-04-07T02:50:05;14.27;;;10.63;;
24567;SDS011;12731;52.182;8.716;2023-04-07T02:52:32;13.60;;;11.80;;
24567;SDS011;12731;52.182;8.716;2023-04-07T02:54:58;14.88;;;11.35;;
24567;SDS011;12731;52.182;8.716;2023-04-07T02:57:26;13.48;;;11.32;;
24567;SDS011;12731;52.182;8.716;2023-04-07T02:59:52;14.95;;;11.77;;
24567;SDS011;12731;52.182;8.716;2023-04-07T03:02:21;15.13;;;12.10;;
24567;SDS011;12731;52.182;8.716;2023-04-07T03:04:47;14.45;;;11.40;;
24567;SDS011;12731;52.182;8.716;2023-04-07T03:07:16;15.57;;;12.35;;
24567;SDS011;12731;52.182;8.716;2023-04-07T03:09:43;14.65;;;11.70;;
24567;SDS011;12731;52.182;8.716;2023-04-07T03:12:09;13.55;;;11.60;;
24567;SDS011;12731;52.182;8.716;2023-04-07T03:14:36;15.80;;;12.43;;
24567;SDS011;12731;52.182;8.716;2023-04-07T03:17:02;15.35;;;12.13;;
24567;SDS011;12731;52.182;8.716;2023-04-07T03:19:29;14.60;;;12.15;;
24567;SDS011;12731;52.182;8.716;2023-04-07T03:21:56;15.15;;;12.10;;
24567;SDS011;12731;52.182;8.716;2023-04-07T03:24:22;14.45;;;11.90;;
24567;SDS011;12731;52.182;8.716;2023-04-07T03:26:49;14.25;;;12.50;;
24567;SDS011;12731;52.182;8.716;2023-04-07T03:29:16;16.77;;;12.55;;
24567;SDS011;12731;52.182;8.716;2023-04-07T03:31:44;17.23;;;13.38;;
24567;SDS011;12731;52.182;8.716;2023-04-07T03:34:11;14.18;;;11.73;;
24567;SDS011;12731;52.182;8.716;2023-04-07T03:36:38;17.20;;;12.95;;
24567;SDS011;12731;52.182;8.716;2023-04-07T03:39:04;17.25;;;13.45;;
24567;SDS011;12731;52.182;8.716;2023-04-07T03:41:31;15.77;;;12.38;;
24567;SDS011;12731;52.182;8.716;2023-04-07T03:43:58;16.63;;;13.00;;
24567;SDS011;12731;52.182;8.716;2023-04-07T03:46:24;17.35;;;13.45;;
24567;SDS011;12731;52.182;8.716;2023-04-07T03:48:52;18.75;;;13.43;;
24567;SDS011;12731;52.182;8.716;2023-04-07T03:51:19;17.30;;;13.45;;
24567;SDS011;12731;52.182;8.716;2023-04-07T03:53:45;17.63;;;13.27;;
24567;SDS011;12731;52.182;8.716;2023-04-07T03:56:12;18.67;;;13.73;;
24567;SDS011;12731;52.182;8.716;2023-04-07T03:58:38;16.48;;;13.38;;
24567;SDS011;12731;52.182;8.716;2023-04-07T04:01:07;16.23;;;12.43;;
24567;SDS011;12731;52.182;8.716;2023-04-07T04:03:34;16.30;;;12.93;;
24567;SDS011;12731;52.182;8.716;2023-04-07T04:06:01;17.10;;;13.88;;
24567;SDS011;12731;52.182;8.716;2023-04-07T04:08:27;15.15;;;12.95;;
24567;SDS011;12731;52.182;8.716;2023-04-07T04:10:54;17.10;;;13.60;;
24567;SDS011;12731;52.182;8.716;2023-04-07T04:13:21;15.20;;;13.25;;
24567;SDS011;12731;52.182;8.716;2023-04-07T04:15:47;16.98;;;13.25;;
24567;SDS011;12731;52.182;8.716;2023-04-07T04:18:13;17.45;;;13.55;;
24567;SDS011;12731;52.182;8.716;2023-04-07T04:20:41;18.10;;;13.82;;
24567;SDS011;12731;52.182;8.716;2023-04-07T04:23:08;17.50;;;13.63;;
24567;SDS011;12731;52.182;8.716;2023-04-07T04:25:34;16.00;;;13.07;;
24567;SDS011;12731;52.182;8.716;2023-04-07T04:28:01;16.65;;;12.70;;
24567;SDS011;12731;52.182;8.716;2023-04-07T04:30:27;19.85;;;13.35;;
24567;SDS011;12731;52.182;8.716;2023-04-07T04:32:54;16.35;;;13.30;;
24567;SDS011;12731;52.182;8.716;2023-04-07T04:35:20;16.15;;;12.60;;
24567;SDS011;12731;52.182;8.716;2023-04-07T04:37:47;15.95;;;13.38;;
24567;SDS011;12731;52.182;8.716;2023-04-07T04:40:14;16.15;;;13.10;;
24567;SDS011;12731;52.182;8.716;2023-04-07T04:42:40;17.42;;;13.00;;
24567;SDS011;12731;52.182;8.716;2023-04-07T04:45:07;14.93;;;12.88;;
24567;SDS011;12731;52.182;8.716;2023-04-07T04:47:33;17.20;;;14.07;;
24567;SDS011;12731;52.182;8.716;2023-04-07T04:50:00;16.75;;;13.95;;
24567;SDS011;12731;52.182;8.716;2023-04-07T04:52:27;16.60;;;13.60;;
24567;SDS011;12731;52.182;8.716;2023-04-07T04:54:54;17.40;;;14.50;;
24567;SDS011;12731;52.182;8.716;2023-04-07T04:57:20;17.77;;;14.73;;
24567;SDS011;12731;52.182;8.716;2023-04-07T04:59:47;21.38;;;16.23;;
24567;SDS011;12731;52.182;8.716;2023-04-07T05:02:14;19.42;;;15.40;;
24567;SDS011;12731;52.182;8.716;2023-04-07T05:04:40;18.17;;;14.52;;
24567;SDS011;12731;52.182;8.716;2023-04-07T05:07:07;20.25;;;15.32;;
24567;SDS011;12731;52.182;8.716;2023-04-07T05:09:33;17.75;;;15.00;;
24567;SDS011;12731;52.182;8.716;2023-04-07T05:12:00;17.38;;;14.60;;
24567;SDS011;12731;52.182;8.716;2023-04-07T05:14:27;18.30;;;15.00;;
24567;SDS011;12731;52.182;8.716;2023-04-07T05:16:54;17.80;;;14.10;;
24567;SDS011;12731;52.182;8.716;2023-04-07T05:19:20;18.20;;;14.35;;
24567;SDS011;12731;52.182;8.716;2023-04-07T05:21:47;17.88;;;14.25;;
24567;SDS011;12731;52.182;8.716;2023-04-07T05:24:13;17.88;;;14.52;;
24567;SDS011;12731;52.182;8.716;2023-04-07T05:26:40;17.50;;;13.60;;
24567;SDS011;12731;52.182;8.716;2023-04-07T05:29:06;16.77;;;13.27;;
24567;SDS011;12731;52.182;8.716;2023-04-07T05:31:33;16.35;;;12.75;;
24567;SDS011;12731;52.182;8.716;2023-04-07T05:34:02;16.08;;;13.48;;
24567;SDS011;12731;52.182;8.716;2023-04-07T05:36:29;16.10;;;11.93;;
24567;SDS011;12731;52.182;8.716;2023-04-07T05:38:56;15.48;;;12.63;;
24567;SDS011;12731;52.182;8.716;2023-04-07T05:41:23;15.02;;;11.68;;
24567;SDS011;12731;52.182;8.716;2023-04-07T05:43:49;14.38;;;11.65;;
24567;SDS011;12731;52.182;8.716;2023-04-07T05:46:16;15.32;;;12.15;;
24567;SDS011;12731;52.182;8.716;2023-04-07T05:48:43;16.05;;;13.15;;
24567;SDS011;12731;52.182;8.716;2023-04-07T05:51:10;16.67;;;12.27;;
24567;SDS011;12731;52.182;8.716;2023-04-07T05:53:36;17.52;;;12.00;;
24567;SDS011;12731;52.182;8.716;2023-04-07T05:56:03;14.43;;;11.45;;
24567;SDS011;12731;52.182;8.716;2023-04-07T05:58:29;13.95;;;11.00;;
24567;SDS011;12731;52.182;8.716;2023-04-07T06:00:56;14.93;;;11.48;;
24567;SDS011;12731;52.182;8.716;2023-04-07T06:03:22;15.00;;;11.75;;
24567;SDS011;12731;52.182;8.716;2023-04-07T06:05:49;14.00;;;11.60;;
24567;SDS011;12731;52.182;8.716;2023-04-07T06:08:16;15.48;;;12.02;;
24567;SDS011;12731;52.182;8.716;2023-04-07T06:10:42;12.93;;;11.18;;
24567;SDS011;12731;52.182;8.716;2023-04-07T06:13:09;14.70;;;11.82;;
24567;SDS011;12731;52.182;8.716;2023-04-07T06:15:36;12.50;;;10.88;;
24567;SDS011;12731;52.182;8.716;2023-04-07T06:18:02;12.68;;;10.40;;
24567;SDS011;12731;52.182;8.716;2023-04-07T06:20:29;12.57;;;11.10;;
24567;SDS011;12731;52.182;8.716;2023-04-07T06:22:56;13.60;;;10.73;;
24567;SDS011;12731;52.182;8.716;2023-04-07T06:25:22;12.32;;;10.40;;
24567;SDS011;12731;52.182;8.716;2023-04-07T06:27:49;13.98;;;11.18;;
24567;SDS011;12731;52.182;8.716;2023-04-07T06:30:16;12.30;;;10.25;;
24567;SDS011;12731;52.182;8.716;2023-04-07T06:32:42;12.95;;;9.95;;
24567;SDS011;12731;52.182;8.716;2023-04-07T06:35:09;11.60;;;9.38;;
24567;SDS011;12731;52.182;8.716;2023-04-07T06:37:35;11.68;;;9.88;;
24567;SDS011;12731;52.182;8.716;2023-04-07T06:40:02;11.65;;;9.68;;
24567;SDS011;12731;52.182;8.716;2023-04-07T06:42:29;10.15;;;8.88;;
24567;SDS011;12731;52.182;8.716;2023-04-07T06:44:55;13.23;;;10.07;;
24567;SDS011;12731;52.182;8.716;2023-04-07T06:47:22;12.40;;;9.00;;
24567;SDS011;12731;52.182;8.716;2023-04-07T06:49:49;10.82;;;9.30;;
24567;SDS011;12731;52.182;8.716;2023-04-07T06:52:16;10.15;;;9.07;;
24567;SDS011;12731;52.182;8.716;2023-04-07T06:54:42;11.40;;;9.45;;
24567;SDS011;12731;52.182;8.716;2023-04-07T06:57:09;11.60;;;8.82;;
24567;SDS011;12731;52.182;8.716;2023-04-07T06:59:37;10.48;;;8.55;;
24567;SDS011;12731;52.182;8.716;2023-04-07T07:02:04;11.80;;;8.50;;
24567;SDS011;12731;52.182;8.716;2023-04-07T07:04:33;11.18;;;9.20;;
24567;SDS011;12731;52.182;8.716;2023-04-07T07:07:00;10.13;;;8.77;;
24567;SDS011;12731;52.182;8.716;2023-04-07T07:09:26;10.20;;;8.95;;
24567;SDS011;12731;52.182;8.716;2023-04-07T07:11:53;9.82;;;8.77;;
24567;SDS011;12731;52.182;8.716;2023-04-07T07:14:19;9.73;;;8.50;;
24567;SDS011;12731;52.182;8.716;2023-04-07T07:16:46;10.18;;;8.05;;
24567;SDS011;12731;52.182;8.716;2023-04-07T07:19:12;9.13;;;8.13;;
24567;SDS011;12731;52.182;8.716;2023-04-07T07:21:40;9.43;;;8.43;;
24567;SDS011;12731;52.182;8.716;2023-04-07T07:24:06;8.15;;;7.32;;
24567;SDS011;12731;52.182;8.716;2023-04-07T07:26:33;9.02;;;7.40;;
24567;SDS011;12731;52.182;8.716;2023-04-07T07:29:00;8.20;;;7.07;;
24567;SDS011;12731;52.182;8.716;2023-04-07T07:31:26;8.23;;;6.88;;
24567;SDS011;12731;52.182;8.716;2023-04-07T07:33:53;7.50;;;6.20;;
24567;SDS011;12731;52.182;8.716;2023-04-07T07:36:19;6.60;;;5.57;;
24567;SDS011;12731;52.182;8.716;2023-04-07T07:38:48;6.43;;;5.80;;
24567;SDS011;12731;52.182;8.716;2023-04-07T07:41:15;7.15;;;5.93;;
24567;SDS011;12731;52.182;8.716;2023-04-07T07:43:42;6.35;;;5.75;;
24567;SDS011;12731;52.182;8.716;2023-04-07T07:46:08;6.65;;;5.95;;
24567;SDS011;12731;52.182;8.716;2023-04-07T07:48:35;6.60;;;5.72;;
24567;SDS011;12731;52.182;8.716;2023-04-07T07:51:02;6.53;;;5.78;;
24567;SDS011;12731;52.182;8.716;2023-04-07T07:53:28;7.70;;;5.88;;
24567;SDS011;12731;52.182;8.716;2023-04-07T07:55:55;6.60;;;5.40;;
24567;SDS011;12731;52.182;8.716;2023-04-07T07:58:21;6.38;;;5.78;;
24567;SDS011;12731;52.182;8.716;2023-04-07T08:00:48;5.78;;;5.18;;
24567;SDS011;12731;52.182;8.716;2023-04-07T08:03:15;6.20;;;4.93;;
24567;SDS011;12731;52.182;8.716;2023-04-07T08:05:41;6.80;;;5.68;;
24567;SDS011;12731;52.182;8.716;2023-04-07T08:08:12;5.38;;;4.88;;
24567;SDS011;12731;52.182;8.716;2023-04-07T08:10:39;8.85;;;5.70;;
24567;SDS011;12731;52.182;8.716;2023-04-07T08:13:05;6.28;;;5.00;;
24567;SDS011;12731;52.182;8.716;2023-04-07T08:15:32;6.03;;;5.30;;
24567;SDS011;12731;52.182;8.716;2023-04-07T08:17:58;5.57;;;5.07;;
24567;SDS011;12731;52.182;8.716;2023-04-07T08:20:26;7.07;;;5.53;;
24567;SDS011;12731;52.182;8.716;2023-04-07T08:22:52;6.32;;;5.70;;
24567;SDS011;12731;52.182;8.716;2023-04-07T08:25:19;9.15;;;5.70;;
24567;SDS011;12731;52.182;8.716;2023-04-07T08:27:46;5.97;;;5.38;;
24567;SDS011;12731;52.182;8.716;2023-04-07T08:30:12;6.68;;;5.55;;
24567;SDS011;12731;52.182;8.716;2023-04-07T08:32:40;5.88;;;5.38;;
24567;SDS011;12731;52.182;8.716;2023-04-07T08:35:07;6.43;;;5.38;;
24567;SDS011;12731;52.182;8.716;2023-04-07T08:37:34;6.97;;;5.63;;
24567;SDS011;12731;52.182;8.716;2023-04-07T08:40:01;5.90;;;5.30;;
24567;SDS011;12731;52.182;8.716;2023-04-07T08:42:30;7.13;;;5.50;;
24567;SDS011;12731;52.182;8.716;2023-04-07T08:45:02;6.00;;;5.40;;
24567;SDS011;12731;52.182;8.716;2023-04-07T08:47:30;6.97;;;5.72;;
24567;SDS011;12731;52.182;8.716;2023-04-07T08:50:03;5.93;;;5.32;;
24567;SDS011;12731;52.182;8.716;2023-04-07T08:52:33;5.65;;;5.05;;
24567;SDS011;12731;52.182;8.716;2023-04-07T08:55:15;6.07;;;5.18;;
24567;SDS011;12731;52.182;8.716;2023-04-07T08:57:42;6.82;;;5.70;;
24567;SDS011;12731;52.182;8.716;2023-04-07T09:00:09;7.22;;;6.18;;
24567;SDS011;12731;52.182;8.716;2023-04-07T09:02:37;7.15;;;5.88;;
24567;SDS011;12731;52.182;8.716;2023-04-07T09:05:05;6.68;;;5.97;;
24567;SDS011;12731;52.182;8.716;2023-04-07T09:07:34;7.65;;;6.20;;
24567;SDS011;12731;52.182;8.716;2023-04-07T09:10:03;7.70;;;6.90;;
24567;SDS011;12731;52.182;8.716;2023-04-07T09:12:30;7.53;;;6.72;;
24567;SDS011;12731;52.182;8.716;2023-04-07T09:14:59;7.80;;;6.75;;
24567;SDS011;12731;52.182;8.716;2023-04-07T09:17:27;7.78;;;7.00;;
24567;SDS011;12731;52.182;8.716;2023-04-07T09:19:57;7.55;;;6.53;;
24567;SDS011;12731;52.182;8.716;2023-04-07T09:22:38;7.88;;;5.90;;
24567;SDS011;12731;52.182;8.716;2023-04-07T09:25:11;7.55;;;6.65;;
24567;SDS011;12731;52.182;8.716;2023-04-07T09:28:01;7.47;;;6.15;;
24567;SDS011;12731;52.182;8.716;2023-04-07T09:30:29;8.50;;;6.53;;
24567;SDS011;12731;52.182;8.716;2023-04-07T09:32:57;7.75;;;6.63;;
24567;SDS011;12731;52.182;8.716;2023-04-07T09:35:24;7.63;;;6.82;;
24567;SDS011;12731;52.182;8.716;2023-04-07T09:38:03;8.57;;;6.60;;
24567;SDS011;12731;52.182;8.716;2023-04-07T09:40:31;8.20;;;7.10;;
24567;SDS011;12731;52.182;8.716;2023-04-07T09:42:58;7.57;;;6.70;;
24567;SDS011;12731;52.182;8.716;2023-04-07T09:45:25;10.13;;;7.65;;
24567;SDS011;12731;52.182;8.716;2023-04-07T09:48:04;9.13;;;7.43;;
24567;SDS011;12731;52.182;8.716;2023-04-07T09:50:32;8.13;;;7.28;;
24567;SDS011;12731;52.182;8.716;2023-04-07T09:53:00;7.95;;;7.15;;
24567;SDS011;12731;52.182;8.716;2023-04-07T09:55:28;11.52;;;8.02;;
24567;SDS011;12731;52.182;8.716;2023-04-07T09:57:55;10.90;;;7.45;;
24567;SDS011;12731;52.182;8.716;2023-04-07T10:00:22;9.07;;;7.07;;
24567;SDS011;12731;52.182;8.716;2023-04-07T10:02:49;8.75;;;7.78;;
24567;SDS011;12731;52.182;8.716;2023-04-07T10:05:16;9.13;;;7.70;;
24567;SDS011;12731;52.182;8.716;2023-04-07T10:07:43;9.52;;;7.95;;
24567;SDS011;12731;52.182;8.716;2023-04-07T10:10:09;7.80;;;6.88;;
24567;SDS011;12731;52.182;8.716;2023-04-07T10:12:36;9.10;;;7.68;;
24567;SDS011;12731;52.182;8.716;2023-04-07T10:15:03;9.88;;;8.18;;
24567;SDS011;12731;52.182;8.716;2023-04-07T10:17:30;10.75;;;8.13;;
24567;SDS011;12731;52.182;8.716;2023-04-07T10:19:58;8.70;;;7.78;;
24567;SDS011;12731;52.182;8.716;2023-04-07T10:22:25;9.45;;;8.07;;
24567;SDS011;12731;52.182;8.716;2023-04-07T10:24:53;9.13;;;8.23;;
24567;SDS011;12731;52.182;8.716;2023-04-07T10:27:30;8.98;;;7.95;;
24567;SDS011;12731;52.182;8.716;2023-04-07T10:29:58;9.07;;;8.18;;
24567;SDS011;12731;52.182;8.716;2023-04-07T10:32:25;9.85;;;8.55;;
24567;SDS011;12731;52.182;8.716;2023-04-07T10:37:19;9.95;;;8.77;;
24567;SDS011;12731;52.182;8.716;2023-04-07T10:39:48;9.70;;;8.60;;
24567;SDS011;12731;52.182;8.716;2023-04-07T10:45:08;9.88;;;8.55;;
24567;SDS011;12731;52.182;8.716;2023-04-07T10:50:24;12.57;;;8.93;;
24567;SDS011;12731;52.182;8.716;2023-04-07T10:53:04;10.10;;;8.93;;
24567;SDS011;12731;52.182;8.716;2023-04-07T10:58:20;11.48;;;8.57;;
24567;SDS011;12731;52.182;8.716;2023-04-07T11:03:38;10.48;;;8.35;;
24567;SDS011;12731;52.182;8.716;2023-04-07T11:06:17;9.73;;;8.73;;
24567;SDS011;12731;52.182;8.716;2023-04-07T11:08:45;13.32;;;10.15;;
24567;SDS011;12731;52.182;8.716;2023-04-07T11:11:15;10.70;;;9.07;;
24567;SDS011;12731;52.182;8.716;2023-04-07T11:14:02;10.48;;;9.38;;
24567;SDS011;12731;52.182;8.716;2023-04-07T11:16:39;12.90;;;9.48;;
24567;SDS011;12731;52.182;8.716;2023-04-07T11:19:07;14.55;;;10.32;;
24567;SDS011;12731;52.182;8.716;2023-04-07T11:21:34;12.35;;;8.73;;
24567;SDS011;12731;52.182;8.716;2023-04-07T11:24:02;11.38;;;9.60;;
24567;SDS011;12731;52.182;8.716;2023-04-07T11:26:28;10.27;;;9.25;;
24567;SDS011;12731;52.182;8.716;2023-04-07T11:28:55;10.65;;;9.55;;
24567;SDS011;12731;52.182;8.716;2023-04-07T11:31:24;12.35;;;9.93;;
24567;SDS011;12731;52.182;8.716;2023-04-07T11:33:52;12.30;;;9.60;;
24567;SDS011;12731;52.182;8.716;2023-04-07T11:36:32;11.90;;;9.73;;
24567;SDS011;12731;52.182;8.716;2023-04-07T11:39:03;12.43;;;10.05;;
24567;SDS011;12731;52.182;8.716;2023-04-07T11:41:31;10.93;;;9.73;;
24567;SDS011;12731;52.182;8.716;2023-04-07T11:44:08;11.18;;;9.75;;
24567;SDS011;12731;52.182;8.716;2023-04-07T11:46:35;12.70;;;9.45;;
24567;SDS011;12731;52.182;8.716;2023-04-07T11:49:13;12.40;;;10.38;;
24567;SDS011;12731;52.182;8.716;2023-04-07T11:51:41;11.40;;;9.70;;
24567;SDS011;12731;52.182;8.716;2023-04-07T11:54:09;14.38;;;10.23;;
24567;SDS011;12731;52.182;8.716;2023-04-07T11:56:43;13.82;;;10.02;;
24567;SDS011;12731;52.182;8.716;2023-04-07T11:59:18;11.70;;;9.38;;
24567;SDS011;12731;52.182;8.716;2023-04-07T12:01:46;10.88;;;9.73;;
24567;SDS011;12731;52.182;8.716;2023-04-07T12:04:13;12.98;;;10.27;;
24567;SDS011;12731;52.182;8.716;2023-04-07T12:06:44;11.52;;;9.85;;
24567;SDS011;12731;52.182;8.716;2023-04-07T12:09:30;10.93;;;8.57;;
24567;SDS011;12731;52.182;8.716;2023-04-07T12:11:59;13.77;;;10.38;;
24567;SDS011;12731;52.182;8.716;2023-04-07T12:14:27;10.25;;;9.02;;
24567;SDS011;12731;52.182;8.716;2023-04-07T12:16:54;10.60;;;9.07;;
24567;SDS011;12731;52.182;8.716;2023-04-07T12:19:22;10.77;;;9.40;;
24567;SDS011;12731;52.182;8.716;2023-04-07T12:21:49;10.90;;;9.80;;
24567;SDS011;12731;52.182;8.716;2023-04-07T12:24:15;10.45;;;9.35;;
24567;SDS011;12731;52.182;8.716;2023-04-07T12:26:43;10.63;;;8.52;;
24567;SDS011;12731;52.182;8.716;2023-04-07T12:29:10;9.48;;;8.38;;
24567;SDS011;12731;52.182;8.716;2023-04-07T12:31:36;12.25;;;10.30;;
24567;SDS011;12731;52.182;8.716;2023-04-07T12:34:03;10.65;;;9.10;;
24567;SDS011;12731;52.182;8.716;2023-04-07T12:36:29;10.13;;;9.02;;
24567;SDS011;12731;52.182;8.716;2023-04-07T12:38:56;12.50;;;10.25;;
24567;SDS011;12731;52.182;8.716;2023-04-07T12:41:23;10.63;;;8.63;;
24567;SDS011;12731;52.182;8.716;2023-04-07T12:43:50;9.35;;;8.00;;
24567;SDS011;12731;52.182;8.716;2023-04-07T12:46:17;11.27;;;9.07;;
24567;SDS011;12731;52.182;8.716;2023-04-07T12:48:45;9.63;;;8.55;;
24567;SDS011;12731;52.182;8.716;2023-04-07T12:51:13;9.30;;;7.10;;
24567;SDS011;12731;52.182;8.716;2023-04-07T12:53:40;12.50;;;8.23;;
24567;SDS011;12731;52.182;8.716;2023-04-07T12:56:06;11.13;;;9.85;;
24567;SDS011;12731;52.182;8.716;2023-04-07T12:58:33;11.52;;;9.50;;
24567;SDS011;12731;52.182;8.716;2023-04-07T13:00:59;9.88;;;8.52;;
24567;SDS011;12731;52.182;8.716;2023-04-07T13:03:26;11.13;;;9.20;;
24567;SDS011;12731;52.182;8.716;2023-04-07T13:05:53;11.32;;;8.93;;
24567;SDS011;12731;52.182;8.716;2023-04-07T13:08:20;10.00;;;8.50;;
24567;SDS011;12731;52.182;8.716;2023-04-07T13:10:47;9.60;;;8.15;;
24567;SDS011;12731;52.182;8.716;2023-04-07T13:13:14;10.05;;;7.75;;
24567;SDS011;12731;52.182;8.716;2023-04-07T13:15:40;11.00;;;8.38;;
24567;SDS011;12731;52.182;8.716;2023-04-07T13:18:07;12.75;;;10.10;;
24567;SDS011;12731;52.182;8.716;2023-04-07T13:20:33;12.80;;;10.20;;
24567;SDS011;12731;52.182;8.716;2023-04-07T13:23:00;11.80;;;10.57;;
24567;SDS011;12731;52.182;8.716;2023-04-07T13:25:34;12.88;;;9.70;;
24567;SDS011;12731;52.182;8.716;2023-04-07T13:28:01;10.63;;;8.73;;
24567;SDS011;12731;52.182;8.716;2023-04-07T13:30:28;14.02;;;10.43;;
24567;SDS011;12731;52.182;8.716;2023-04-07T13:32:54;13.20;;;10.18;;
24567;SDS011;12731;52.182;8.716;2023-04-07T13:35:21;11.73;;;10.43;;
24567;SDS011;12731;52.182;8.716;2023-04-07T13:37:48;12.43;;;9.80;;
24567;SDS011;12731;52.182;8.716;2023-04-07T13:40:14;13.70;;;10.52;;
24567;SDS011;12731;52.182;8.716;2023-04-07T13:42:41;10.73;;;9.23;;
24567;SDS011;12731;52.182;8.716;2023-04-07T13:45:08;11.68;;;9.40;;
24567;SDS011;12731;52.182;8.716;2023-04-07T13:47:35;12.60;;;9.70;;
24567;SDS011;12731;52.182;8.716;2023-04-07T13:50:02;9.52;;;8.18;;
24567;SDS011;12731;52.182;8.716;2023-04-07T13:52:29;11.93;;;9.40;;
24567;SDS011;12731;52.182;8.716;2023-04-07T13:54:58;10.27;;;8.82;;
24567;SDS011;12731;52.182;8.716;2023-04-07T13:57:24;11.30;;;9.43;;
24567;SDS011;12731;52.182;8.716;2023-04-07T13:59:51;10.48;;;9.38;;
24567;SDS011;12731;52.182;8.716;2023-04-07T14:02:17;12.13;;;9.52;;
24567;SDS011;12731;52.182;8.716;2023-04-07T14:04:45;10.90;;;9.82;;
24567;SDS011;12731;52.182;8.716;2023-04-07T14:07:14;12.65;;;9.73;;
24567;SDS011;12731;52.182;8.716;2023-04-07T14:09:42;12.98;;;10.27;;
24567;SDS011;12731;52.182;8.716;2023-04-07T14:12:13;13.93;;;9.43;;
24567;SDS011;12731;52.182;8.716;2023-04-07T14:14:53;13.40;;;9.93;;
24567;SDS011;12731;52.182;8.716;2023-04-07T14:17:27;11.48;;;9.75;;
24567;SDS011;12731;52.182;8.716;2023-04-07T14:19:56;10.18;;;9.18;;
24567;SDS011;12731;52.182;8.716;2023-04-07T14:22:25;9.68;;;8.18;;
24567;SDS011;12731;52.182;8.716;2023-04-07T14:24:55;12.10;;;9.90;;
24567;SDS011;12731;52.182;8.716;2023-04-07T14:27:23;12.23;;;8.90;;
24567;SDS011;12731;52.182;8.716;2023-04-07T14:29:49;12.75;;;10.45;;
24567;SDS011;12731;52.182;8.716;2023-04-07T14:32:16;10.43;;;9.32;;
24567;SDS011;12731;52.182;8.716;2023-04-07T14:34:43;10.73;;;9.60;;
24567;SDS011;12731;52.182;8.716;2023-04-07T14:37:12;12.50;;;9.93;;
24567;SDS011;12731;52.182;8.716;2023-04-07T14:39:39;11.63;;;10.13;;
24567;SDS011;12731;52.182;8.716;2023-04-07T14:42:20;10.73;;;9.63;;
24567;SDS011;12731;52.182;8.716;2023-04-07T14:44:50;10.50;;;9.10;;
24567;SDS011;12731;52.182;8.716;2023-04-07T14:47:17;11.45;;;8.85;;
24567;SDS011;12731;52.182;8.716;2023-04-07T14:49:46;12.13;;;9.68;;
24567;SDS011;12731;52.182;8.716;2023-04-07T14:52:17;11.80;;;9.25;;
24567;SDS011;12731;52.182;8.716;2023-04-07T14:54:47;14.32;;;9.95;;